Aviation Digital Data Service (ADDS)

Output produced by METARs form (1350 UTC 19 April 2018)
found at http://aviationweather.gov/adds/metars/
 
KRUT 191127Z 1912/2012 VRB03KT P6SM VCSH OVC030 
     FM191300 30004KT P6SM VCSH BKN035 
     FM192300 32005KT P6SM -RASN OVC025 
     FM200100 31006KT 3SM -RASN OVC014 
     FM200700 30007KT P6SM VCSH OVC010